Forside
METAR-TAF:

METAR-TAF

Lufthavne :

John H. Batten Airport

Racine, Wisconsin, USA

Breddekreds: 42-45-31N, længdekreds: 087-49-04W, højde: 205 m

Aktuelle vejr

Denne rapport blev lavet for 14 minutter siden, kl. 12:53 UTC
Vind 5 kt fra vestnordvest
Temperatur 7°C
Fugtighed 70%
Tryk 1028 hPa
Sigt: 16.1 km
Spredte skyer i en højde af 7000 ft

METAR: KRAC 111253Z AUTO 29005KT 10SM SCT070 07/02 A3035 RMK AO2 SLP281 T00670017

Tid: 08:07 (13:07 UTC)


TAF: fraværende

Vejrobservationer og prognoser fra mere end 4000 lufthavne (METAR og TAF).

De gule og røde prikker repræsenterer de meteorologiske stationer.

Flyt musen over at se navnet på stationen.

Så klik over at se vejr observationer og prognoser.

At skifte det kort: Klik på de grønne knapper med et sort kors for at zoome ind; på den grønne knap med en bindestreg for at zoome ud; eller på de grønne pile for tilstødende kort.


METAR-TAF: